createdAt,value
2022-08-05T00:06:03.425Z,24.5
2022-08-05T00:20:42.045Z,24.3
2022-08-05T00:35:09.965Z,24.3
2022-08-05T00:49:44.563Z,24.5
2022-08-05T01:04:13.625Z,23.9
2022-08-05T01:18:47.959Z,23.8
2022-08-05T01:33:19.587Z,24
2022-08-05T01:47:45.771Z,24.2
2022-08-05T02:02:14.029Z,23.8
2022-08-05T02:16:52.398Z,23.6
2022-08-05T02:31:21.179Z,23.8
2022-08-05T02:45:51.823Z,23.9
2022-08-05T03:00:15.290Z,23.1
2022-08-05T03:14:45.913Z,22.6
2022-08-05T03:29:12.484Z,22.5
2022-08-05T03:43:59.627Z,22.4
2022-08-05T03:58:27.124Z,22.6
2022-08-05T04:12:49.907Z,22.5
2022-08-05T04:27:19.124Z,22.3
2022-08-05T04:42:05.908Z,22.2
2022-08-05T04:56:36.746Z,22
2022-08-05T05:11:03.774Z,21.9
2022-08-05T05:25:32.895Z,22.3
2022-08-05T05:40:02.983Z,22.9
2022-08-05T05:54:35.087Z,22.8
2022-08-05T06:09:05.200Z,22.6
2022-08-05T06:23:43.892Z,22.5
2022-08-05T06:38:10.030Z,23
2022-08-05T06:52:37.582Z,23.2
2022-08-05T07:07:07.830Z,22.9
2022-08-05T07:21:59.656Z,22.3
2022-08-05T07:36:19.952Z,22.3
2022-08-05T07:50:48.697Z,22.4
2022-08-05T08:05:13.315Z,22.4
2022-08-05T08:20:23.219Z,22.1
2022-08-05T08:35:19.272Z,22
2022-08-05T08:50:05.581Z,22.1
2022-08-05T09:06:08.361Z,21.9
2022-08-05T09:20:42.819Z,22.2
2022-08-05T09:35:06.005Z,21.8
2022-08-05T09:49:40.228Z,21.5
2022-08-05T10:04:17.345Z,22
2022-08-05T10:18:52.295Z,21.7
2022-08-05T10:33:23.180Z,20.8
2022-08-05T10:48:04.891Z,21.2
2022-08-05T11:03:22.842Z,20.6
2022-08-05T11:17:58.512Z,20
2022-08-05T11:32:22.322Z,19.8
2022-08-05T11:46:58.838Z,19.4
2022-08-05T12:01:52.700Z,19.6
2022-08-05T12:16:25.622Z,20.1
2022-08-05T12:30:54.526Z,20.8
2022-08-05T12:45:23.858Z,21.7
2022-08-05T13:00:09.211Z,21.8
2022-08-05T13:16:01.103Z,22.2
2022-08-05T13:30:33.340Z,22.2
2022-08-05T13:45:00.984Z,22.1
2022-08-05T13:59:30.790Z,22.6
2022-08-05T14:14:04.671Z,22.6
2022-08-05T14:28:34.099Z,23
2022-08-05T14:42:58.395Z,23.1
2022-08-05T14:57:34.004Z,23
2022-08-05T15:12:11.553Z,23.2
2022-08-05T15:26:39.127Z,23.4
2022-08-05T15:41:21.677Z,23.2
2022-08-05T15:56:05.683Z,22.6
2022-08-05T16:10:35.111Z,22.2
2022-08-05T16:25:05.228Z,22.3
2022-08-05T16:40:04.156Z,22.3
2022-08-05T16:54:33.983Z,22.4
2022-08-05T17:09:00.693Z,22.1
2022-08-05T17:24:03.934Z,22.3
2022-08-05T17:39:00.276Z,22.4
2022-08-05T17:53:21.587Z,21.9
2022-08-05T18:08:00.969Z,22
2022-08-05T18:22:25.303Z,21.9
2022-08-05T18:37:12.469Z,21.2
2022-08-05T18:52:03.515Z,20.8
2022-08-05T19:06:33.990Z,20.8
2022-08-05T19:21:00.488Z,20.8
2022-08-05T19:35:25.631Z,19.8
2022-08-05T19:50:13.239Z,19.6
2022-08-05T20:04:37.042Z,18.9
2022-08-05T20:19:05.654Z,18.6
2022-08-05T20:33:34.248Z,18.5
2022-08-05T20:48:01.312Z,18.1
2022-08-05T21:02:30.821Z,18.2
2022-08-05T21:16:58.005Z,17.8
2022-08-05T21:31:25.416Z,17.5
2022-08-05T21:46:00.377Z,17.4
2022-08-05T22:00:12.869Z,17
2022-08-05T22:14:43.977Z,17.1
2022-08-05T22:29:17.495Z,17.1
2022-08-05T22:43:53.599Z,16.5
2022-08-05T22:58:28.379Z,16.4
2022-08-05T23:12:51.422Z,16.4
2022-08-05T23:27:19.664Z,16.2
2022-08-05T23:41:51.057Z,16.2
2022-08-05T23:56:19.956Z,15.8
